createdAt,value
2022-12-08T00:00:07.072Z,9.43
2022-12-08T00:03:12.458Z,9.41
2022-12-08T00:05:40.606Z,9.39
2022-12-08T00:08:08.871Z,9.37
2022-12-08T00:11:14.147Z,9.34
2022-12-08T00:13:42.373Z,9.33
2022-12-08T00:16:10.709Z,9.29
2022-12-08T00:19:15.948Z,9.33
2022-12-08T00:21:44.244Z,9.32
2022-12-08T00:24:12.444Z,9.37
2022-12-08T00:26:40.677Z,9.39
2022-12-08T00:29:11.958Z,9.47
2022-12-08T00:32:14.410Z,9.51
2022-12-08T00:34:42.499Z,9.51
2022-12-08T00:37:10.767Z,9.55
2022-12-08T00:40:16.058Z,9.57
2022-12-08T00:42:44.278Z,9.56
2022-12-08T00:45:12.581Z,9.52
2022-12-08T00:47:40.777Z,9.49
2022-12-08T00:50:09.008Z,9.39
2022-12-08T00:53:14.352Z,9.35
2022-12-08T00:55:42.566Z,9.35
2022-12-08T00:58:10.807Z,9.29
2022-12-08T01:01:08.000Z,9.31
2022-12-08T01:04:13.294Z,9.39
2022-12-08T01:06:41.501Z,9.43
2022-12-08T01:09:09.758Z,9.5
2022-12-08T01:12:15.060Z,9.55
2022-12-08T01:14:43.339Z,9.57
2022-12-08T01:17:11.632Z,9.57
2022-12-08T01:19:39.797Z,9.59
2022-12-08T01:22:08.074Z,9.58
2022-12-08T01:25:13.376Z,9.55
2022-12-08T01:27:41.600Z,9.5
2022-12-08T01:30:09.849Z,9.47
2022-12-08T01:33:15.180Z,9.47
2022-12-08T01:35:43.423Z,9.47
2022-12-08T01:38:11.668Z,9.41
2022-12-08T01:41:16.956Z,9.38
2022-12-08T01:43:45.210Z,9.37
2022-12-08T01:46:13.545Z,9.39
2022-12-08T01:48:41.744Z,9.43
2022-12-08T01:51:09.943Z,9.49
2022-12-08T01:54:15.254Z,9.47
2022-12-08T01:56:43.496Z,9.47
2022-12-08T01:59:11.771Z,9.57
2022-12-08T02:02:08.972Z,9.57
2022-12-08T02:05:14.216Z,9.55
2022-12-08T02:07:42.517Z,9.54
2022-12-08T02:10:10.687Z,9.54
2022-12-08T02:13:16.020Z,9.49
2022-12-08T02:15:44.303Z,9.47
2022-12-08T02:18:12.503Z,9.38
2022-12-08T02:20:40.749Z,9.37
2022-12-08T02:23:08.961Z,9.33
2022-12-08T02:26:14.385Z,9.32
2022-12-08T02:28:42.555Z,9.31
2022-12-08T02:31:10.947Z,9.33
2022-12-08T02:34:16.148Z,9.35
2022-12-08T02:36:44.370Z,9.39
2022-12-08T02:39:12.636Z,9.47
2022-12-08T02:41:40.872Z,9.47
2022-12-08T02:44:09.088Z,9.39
2022-12-08T02:47:14.405Z,9.5
2022-12-08T02:49:42.638Z,9.52
2022-12-08T02:52:10.901Z,9.46
2022-12-08T02:55:16.227Z,9.45
2022-12-08T02:57:44.461Z,9.45
2022-12-08T03:00:12.740Z,9.42
2022-12-08T03:02:40.955Z,9.42
2022-12-08T03:05:09.213Z,9.31
2022-12-08T03:08:14.599Z,9.37
2022-12-08T03:11:48.714Z,9.42
2022-12-08T03:14:53.959Z,9.45
2022-12-08T03:17:59.315Z,9.54
2022-12-08T03:21:04.620Z,9.6
2022-12-08T03:24:09.925Z,9.64
2022-12-08T03:27:15.217Z,9.66
2022-12-08T03:29:43.502Z,9.66
2022-12-08T03:32:11.731Z,9.66
2022-12-08T03:34:40.285Z,9.66
2022-12-08T03:37:08.482Z,9.62
2022-12-08T03:40:13.554Z,9.6
2022-12-08T03:42:41.760Z,9.57
2022-12-08T03:45:10.034Z,9.52
2022-12-08T03:48:15.340Z,9.43
2022-12-08T03:50:43.590Z,9.43
2022-12-08T03:53:11.865Z,9.43
2022-12-08T03:55:40.075Z,9.45
2022-12-08T03:58:08.325Z,9.45
2022-12-08T04:01:13.649Z,9.46
2022-12-08T04:03:41.875Z,9.47
2022-12-08T04:06:10.158Z,9.53
2022-12-08T04:09:15.442Z,9.57
2022-12-08T04:12:16.654Z,9.58
2022-12-08T04:14:44.984Z,9.57
2022-12-08T04:17:13.140Z,9.54
2022-12-08T04:19:41.415Z,9.38
2022-12-08T04:22:09.621Z,9.47
2022-12-08T04:25:52.004Z,9.47
2022-12-08T04:28:57.350Z,9.45
2022-12-08T04:32:02.637Z,9.43
2022-12-08T04:35:07.937Z,9.42
2022-12-08T04:38:13.243Z,9.38
2022-12-08T04:40:41.508Z,9.39
2022-12-08T04:43:09.746Z,9.43
2022-12-08T04:46:15.080Z,9.43
2022-12-08T04:48:43.292Z,9.43
2022-12-08T04:51:11.545Z,9.5
2022-12-08T04:54:16.859Z,9.57
2022-12-08T04:56:45.077Z,9.6
2022-12-08T04:59:13.325Z,9.6
2022-12-08T05:04:09.856Z,9.58
2022-12-08T05:07:15.188Z,9.57
2022-12-08T05:09:43.428Z,9.57
2022-12-08T05:12:03.438Z,9.55
2022-12-08T05:15:08.761Z,9.51
2022-12-08T05:18:14.069Z,9.5
2022-12-08T05:20:42.346Z,9.49
2022-12-08T05:23:10.571Z,9.49
2022-12-08T05:26:15.866Z,9.5
2022-12-08T05:28:44.396Z,9.52
2022-12-08T05:31:12.551Z,9.56
2022-12-08T05:33:40.620Z,9.6
2022-12-08T05:36:08.891Z,9.63
2022-12-08T05:39:14.227Z,9.63
2022-12-08T05:41:42.456Z,9.63
2022-12-08T05:44:10.677Z,9.64
2022-12-08T05:47:15.999Z,9.6
2022-12-08T05:49:44.242Z,9.6
2022-12-08T05:52:12.484Z,9.54
2022-12-08T05:54:40.726Z,9.51
2022-12-08T05:57:09.019Z,9.47
2022-12-08T06:00:14.283Z,9.42
2022-12-08T06:02:42.740Z,9.39
2022-12-08T06:05:10.756Z,9.38
2022-12-08T06:08:16.151Z,9.38
2022-12-08T06:10:44.328Z,9.38
2022-12-08T06:13:04.409Z,9.45
2022-12-08T06:16:09.770Z,9.47
2022-12-08T06:19:52.058Z,9.56
2022-12-08T06:22:57.390Z,9.58
2022-12-08T06:26:02.676Z,9.6
2022-12-08T06:29:07.995Z,9.6
2022-12-08T06:32:13.329Z,9.6
2022-12-08T06:34:41.540Z,9.6
2022-12-08T06:37:09.766Z,9.53
2022-12-08T06:40:15.112Z,9.46
2022-12-08T06:42:43.337Z,9.45
2022-12-08T06:45:11.605Z,9.38
2022-12-08T06:47:39.831Z,9.35
2022-12-08T06:50:08.275Z,9.29
2022-12-08T06:53:13.417Z,9.3
2022-12-08T06:55:58.203Z,9.28
2022-12-08T06:58:09.893Z,9.29
2022-12-08T07:01:15.294Z,9.34
2022-12-08T07:03:43.470Z,9.35
2022-12-08T07:06:11.713Z,9.43
2022-12-08T07:09:17.006Z,9.47
2022-12-08T07:11:45.244Z,9.47
2022-12-08T07:14:13.536Z,9.46
2022-12-08T07:16:33.627Z,9.46
2022-12-08T07:19:01.824Z,9.39
2022-12-08T07:22:07.118Z,9.41
2022-12-08T07:25:12.516Z,9.39
2022-12-08T07:27:40.644Z,9.39
2022-12-08T07:30:08.945Z,9.35
2022-12-08T07:33:14.188Z,9.31
2022-12-08T07:35:46.406Z,9.31
2022-12-08T07:38:10.692Z,9.22
2022-12-08T07:40:38.948Z,9.22
2022-12-08T07:43:07.216Z,9.18
2022-12-08T07:46:12.614Z,9.26
2022-12-08T07:48:40.755Z,9.28
2022-12-08T07:51:09.007Z,9.33
2022-12-08T07:54:14.338Z,9.37
2022-12-08T07:56:42.558Z,9.35
2022-12-08T07:59:10.830Z,9.35
2022-12-08T08:02:23.954Z,9.37
2022-12-08T08:04:44.494Z,9.35
2022-12-08T08:07:12.643Z,9.34
2022-12-08T08:09:40.927Z,9.34
2022-12-08T08:12:30.058Z,9.17
2022-12-08T08:15:06.237Z,9.22
2022-12-08T08:18:11.520Z,9.22
2022-12-08T08:21:43.599Z,9.18
2022-12-08T08:23:45.105Z,9.18
2022-12-08T08:26:13.341Z,9.14
2022-12-08T08:28:41.595Z,9.13
2022-12-08T08:31:09.907Z,9.18
2022-12-08T08:34:15.139Z,9.29
2022-12-08T08:36:43.445Z,9.32
2022-12-08T08:39:11.639Z,9.38
2022-12-08T08:41:39.903Z,9.39
2022-12-08T08:44:08.159Z,9.45
2022-12-08T08:47:13.501Z,9.5
2022-12-08T08:49:41.713Z,9.52
2022-12-08T08:52:09.950Z,9.5
2022-12-08T08:55:15.285Z,9.5
2022-12-08T08:57:43.492Z,9.5
2022-12-08T09:00:11.736Z,9.47
2022-12-08T09:02:39.968Z,9.47
2022-12-08T09:05:08.352Z,9.45
2022-12-08T09:08:13.608Z,9.43
2022-12-08T09:10:41.851Z,9.43
2022-12-08T09:13:10.025Z,9.47
2022-12-08T09:16:07.252Z,9.52
2022-12-08T09:19:12.499Z,9.53
2022-12-08T09:21:40.720Z,9.55
2022-12-08T09:24:45.996Z,9.59
2022-12-08T09:27:14.252Z,9.68
2022-12-08T09:29:42.494Z,9.68
2022-12-08T09:32:10.806Z,9.72
2022-12-08T09:35:16.040Z,9.7
2022-12-08T09:37:44.327Z,9.68
2022-12-08T09:40:12.552Z,9.67
2022-12-08T09:42:40.832Z,9.68
2022-12-08T09:45:09.051Z,9.62
2022-12-08T09:48:14.352Z,9.56
2022-12-08T09:50:42.616Z,9.56
2022-12-08T09:53:10.857Z,9.53
2022-12-08T09:56:16.179Z,9.51
2022-12-08T09:58:44.464Z,9.5
2022-12-08T10:01:12.696Z,9.56
2022-12-08T10:03:40.927Z,9.6
2022-12-08T10:06:09.154Z,9.67
2022-12-08T10:09:17.194Z,9.8
2022-12-08T10:11:42.718Z,9.81
2022-12-08T10:14:02.786Z,9.82
2022-12-08T10:17:08.072Z,9.83
2022-12-08T10:20:13.405Z,9.82
2022-12-08T10:22:44.848Z,9.84
2022-12-08T10:25:09.857Z,9.89
2022-12-08T10:28:15.245Z,9.92
2022-12-08T10:30:43.460Z,9.91
2022-12-08T10:33:11.754Z,9.89
2022-12-08T10:35:39.918Z,9.85
2022-12-08T10:38:45.235Z,9.83
2022-12-08T10:41:13.468Z,9.79
2022-12-08T10:43:41.754Z,9.77
2022-12-08T10:46:10.066Z,9.8
2022-12-08T10:49:15.308Z,9.72
2022-12-08T10:51:43.595Z,9.71
2022-12-08T10:54:11.805Z,9.8
2022-12-08T10:56:40.061Z,9.83
2022-12-08T10:59:08.296Z,9.92
2022-12-08T11:02:13.715Z,9.97
2022-12-08T11:04:41.844Z,9.96
2022-12-08T11:07:10.156Z,9.99
2022-12-08T11:10:15.443Z,10.07
2022-12-08T11:12:43.691Z,10.09
2022-12-08T11:15:03.725Z,10.08
2022-12-08T11:18:09.022Z,10.03
2022-12-08T11:21:14.313Z,10.04
2022-12-08T11:23:42.609Z,10.04
2022-12-08T11:26:10.806Z,10.03
2022-12-08T11:29:16.162Z,10.06
2022-12-08T11:31:44.424Z,10.08
2022-12-08T11:34:12.657Z,10.05
2022-12-08T11:36:40.906Z,10.06
2022-12-08T11:39:09.091Z,9.97
2022-12-08T11:42:14.403Z,10.04
2022-12-08T11:44:42.687Z,10.05
2022-12-08T11:47:10.941Z,10.1
2022-12-08T11:50:18.089Z,10.13
2022-12-08T11:52:44.469Z,10.12
2022-12-08T11:55:12.773Z,10.21
2022-12-08T11:57:41.013Z,10.22
2022-12-08T12:00:09.229Z,10.17
2022-12-08T12:03:14.569Z,10.34
2022-12-08T12:06:05.740Z,10.34
2022-12-08T12:08:11.074Z,10.37
2022-12-08T12:11:16.324Z,10.34
2022-12-08T12:13:44.582Z,10.33
2022-12-08T12:16:12.890Z,10.38
2022-12-08T12:18:32.878Z,10.38
2022-12-08T12:21:01.153Z,10.34
2022-12-08T12:24:06.429Z,10.33
2022-12-08T12:27:11.735Z,10.32
2022-12-08T12:30:17.134Z,10.32
2022-12-08T12:32:45.323Z,10.33
2022-12-08T12:35:13.543Z,10.35
2022-12-08T12:37:41.832Z,10.36
2022-12-08T12:40:10.007Z,10.38
2022-12-08T12:43:15.337Z,10.34
2022-12-08T12:45:43.683Z,10.31
2022-12-08T12:48:11.856Z,10.32
2022-12-08T12:50:40.063Z,10.33
2022-12-08T12:53:13.675Z,10.34
2022-12-08T12:56:13.681Z,10.3
2022-12-08T12:58:41.940Z,10.3
2022-12-08T13:01:10.214Z,10.33
2022-12-08T13:04:15.470Z,10.3
2022-12-08T13:06:43.726Z,10.31
2022-12-08T13:09:11.939Z,10.25
2022-12-08T13:11:44.786Z,10.24
2022-12-08T13:14:08.446Z,10.29
2022-12-08T13:17:05.653Z,10.33
2022-12-08T13:20:11.057Z,10.33
2022-12-08T13:23:16.196Z,10.35
2022-12-08T13:25:44.435Z,10.36
2022-12-08T13:28:12.684Z,10.37
2022-12-08T13:30:40.976Z,10.39
2022-12-08T13:33:17.532Z,10.37
2022-12-08T13:36:14.476Z,10.47
2022-12-08T13:38:42.779Z,10.47
2022-12-08T13:41:10.980Z,10.46
2022-12-08T13:57:14.806Z,10.45
2022-12-08T13:59:42.822Z,10.49
2022-12-08T14:02:11.135Z,10.8
2022-12-08T14:05:18.483Z,10.99
2022-12-08T14:07:44.683Z,11.07
2022-12-08T14:10:12.896Z,11.43
2022-12-08T14:12:41.116Z,11.53
2022-12-08T14:15:09.425Z,11.82
2022-12-08T14:18:06.496Z,12.13
2022-12-08T14:21:20.621Z,12.28
2022-12-08T14:24:17.100Z,12.32
2022-12-08T14:26:45.402Z,12.32
2022-12-08T14:29:50.739Z,12.27
2022-12-08T14:32:55.965Z,12.06
2022-12-08T14:36:01.284Z,11.93
2022-12-08T14:39:06.633Z,11.75
2022-12-08T14:42:11.927Z,11.6
2022-12-08T14:44:40.159Z,11.58
2022-12-08T14:47:08.435Z,11.45
2022-12-08T14:50:13.734Z,11.38
2022-12-08T14:52:41.973Z,11.32
2022-12-08T14:55:10.185Z,11.15
2022-12-08T14:58:16.691Z,11.08
2022-12-08T15:00:43.811Z,11.06
2022-12-08T15:03:12.032Z,10.94
2022-12-08T15:05:40.265Z,10.93
2022-12-08T15:08:08.616Z,10.84
2022-12-08T15:11:13.789Z,10.76
2022-12-08T15:13:42.073Z,10.75
2022-12-08T15:16:10.340Z,10.6
2022-12-08T15:19:09.712Z,10.52
2022-12-08T15:22:12.745Z,10.41
2022-12-08T15:24:41.021Z,10.37
2022-12-08T15:27:09.317Z,10.25
2022-12-08T15:30:14.593Z,10.28
2022-12-08T15:32:42.792Z,10.28
2022-12-08T15:35:11.045Z,10.22
2022-12-08T15:37:39.324Z,10.22
2022-12-08T15:40:07.921Z,10.18
2022-12-08T15:43:12.864Z,10.17
2022-12-08T15:45:46.940Z,10.18
2022-12-08T15:48:09.371Z,10.05
2022-12-08T15:51:14.641Z,10.14
2022-12-08T15:53:42.914Z,10.14
2022-12-08T15:56:27.990Z,10.18
2022-12-08T15:59:16.448Z,10.18
2022-12-08T16:01:44.735Z,10.2
2022-12-08T16:05:11.894Z,10.25
2022-12-08T16:09:12.681Z,10.3
2022-12-08T16:12:14.913Z,10.35
2022-12-08T16:17:40.126Z,10.3
2022-12-08T16:20:08.786Z,10.24
2022-12-08T16:23:34.503Z,10.22
2022-12-08T16:26:16.022Z,10.22
2022-12-08T16:28:23.566Z,10.18
2022-12-08T16:31:18.819Z,10.14
2022-12-08T16:33:43.751Z,10.13
2022-12-08T16:36:11.993Z,10.12
2022-12-08T16:38:40.203Z,10.1
2022-12-08T16:41:08.453Z,10.06
2022-12-08T16:44:13.804Z,10.05
2022-12-08T16:46:42.026Z,10.03
2022-12-08T16:49:10.284Z,10.01
2022-12-08T16:52:15.578Z,10
2022-12-08T16:54:43.856Z,9.97
2022-12-08T16:57:12.109Z,9.95
2022-12-08T16:59:40.316Z,9.54
2022-12-08T17:02:45.705Z,9.89
2022-12-08T17:05:14.008Z,9.91
2022-12-08T17:07:42.167Z,9.92
2022-12-08T17:10:10.380Z,9.95
2022-12-08T17:13:15.685Z,9.97
2022-12-08T17:15:43.961Z,9.99
2022-12-08T17:18:12.208Z,10.04
2022-12-08T17:20:32.238Z,9.89
2022-12-08T17:23:00.478Z,10.04
2022-12-08T17:26:05.788Z,10.07
2022-12-08T17:29:11.070Z,10.05
2022-12-08T17:32:16.415Z,10.09
2022-12-08T17:34:44.643Z,10.1
2022-12-08T17:37:12.937Z,10.07
2022-12-08T17:39:41.132Z,10.05
2022-12-08T17:42:09.387Z,9.93
2022-12-08T17:45:14.710Z,9.97
2022-12-08T17:47:42.991Z,9.97
2022-12-08T17:50:11.176Z,9.96
2022-12-08T17:53:16.492Z,9.89
2022-12-08T17:55:44.748Z,9.89
2022-12-08T17:58:13.014Z,9.87
2022-12-08T18:00:41.352Z,9.88
2022-12-08T18:03:09.543Z,9.83
2022-12-08T18:06:14.828Z,9.87
2022-12-08T18:08:43.057Z,9.89
2022-12-08T18:11:11.346Z,9.93
2022-12-08T18:13:39.524Z,9.96
2022-12-08T18:16:07.793Z,9.99
2022-12-08T18:19:04.898Z,10
2022-12-08T18:22:10.212Z,10
2022-12-08T18:25:15.514Z,9.99
2022-12-08T18:27:43.770Z,9.97
2022-12-08T18:30:12.224Z,9.96
2022-12-08T18:32:40.296Z,9.97
2022-12-08T18:35:08.500Z,9.93
2022-12-08T18:38:13.839Z,9.89
2022-12-08T18:40:42.071Z,9.85
2022-12-08T18:43:10.328Z,9.79
2022-12-08T18:46:15.683Z,9.76
2022-12-08T18:48:43.877Z,9.75
2022-12-08T18:51:12.131Z,9.72
2022-12-08T18:53:40.406Z,10.05
2022-12-08T18:56:45.671Z,9.75
2022-12-08T18:59:13.925Z,9.76
2022-12-08T19:01:42.243Z,9.79
2022-12-08T19:04:29.356Z,9.82
2022-12-08T19:07:15.728Z,9.85
2022-12-08T19:09:44.036Z,9.85
2022-12-08T19:12:12.177Z,9.91
2022-12-08T19:14:40.541Z,9.93
2022-12-08T19:17:08.692Z,9.93
2022-12-08T19:20:06.172Z,9.93
2022-12-08T19:23:11.126Z,9.93
2022-12-08T19:26:16.451Z,9.89
2022-12-08T19:28:44.702Z,9.89
2022-12-08T19:31:12.990Z,9.85
2022-12-08T19:33:41.252Z,9.83
2022-12-08T19:36:09.483Z,9.68
2022-12-08T19:39:14.801Z,9.75
2022-12-08T19:41:43.011Z,9.74
2022-12-08T19:44:11.276Z,9.75
2022-12-08T19:47:16.641Z,9.75
2022-12-08T19:49:44.816Z,9.76
2022-12-08T19:52:13.065Z,9.78
2022-12-08T19:54:41.319Z,9.8
2022-12-08T19:57:09.577Z,9.81
2022-12-08T20:00:14.971Z,9.87
2022-12-08T20:02:43.270Z,9.88
2022-12-08T20:05:11.381Z,9.93
2022-12-08T20:08:16.727Z,9.95
2022-12-08T20:10:44.911Z,9.93
2022-12-08T20:13:13.172Z,9.92
2022-12-08T20:15:41.466Z,9.72
2022-12-08T20:18:38.537Z,9.89
2022-12-08T20:21:43.830Z,9.82
2022-12-08T20:24:12.125Z,9.79
2022-12-08T20:26:40.335Z,9.82
2022-12-08T20:29:45.653Z,9.76
2022-12-08T20:32:14.016Z,9.71
2022-12-08T20:34:42.162Z,9.7
2022-12-08T20:37:10.363Z,9.75
2022-12-08T20:40:15.696Z,9.8
2022-12-08T20:42:43.932Z,9.8
2022-12-08T20:45:12.172Z,9.85
2022-12-08T20:47:40.421Z,9.85
2022-12-08T20:50:08.997Z,9.82
2022-12-08T20:53:14.089Z,9.81
2022-12-08T20:55:42.346Z,9.8
2022-12-08T20:58:10.552Z,9.78
2022-12-08T21:01:16.126Z,9.77
2022-12-08T21:03:44.290Z,9.77
2022-12-08T21:06:12.439Z,9.67
2022-12-08T21:08:40.848Z,9.64
2022-12-08T21:11:08.840Z,9.6
2022-12-08T21:14:14.326Z,9.55
2022-12-08T21:16:42.517Z,9.55
2022-12-08T21:19:39.447Z,9.54
2022-12-08T21:22:07.917Z,9.59
2022-12-08T21:25:13.195Z,9.6
2022-12-08T21:27:41.481Z,9.6
2022-12-08T21:33:15.400Z,9.71
2022-12-08T21:35:43.161Z,9.74
2022-12-08T21:38:11.464Z,9.77
2022-12-08T21:41:54.080Z,9.76
2022-12-08T21:44:59.175Z,9.76
2022-12-08T21:48:09.061Z,9.77
2022-12-08T21:51:46.836Z,9.79
2022-12-08T21:54:18.556Z,9.74
2022-12-08T21:56:43.337Z,9.72
2022-12-08T21:59:11.528Z,9.68
2022-12-08T22:02:20.923Z,9.62
2022-12-08T22:04:45.035Z,9.6
2022-12-08T22:07:13.238Z,9.56
2022-12-08T22:09:41.696Z,9.56
2022-12-08T22:12:09.912Z,9.54
2022-12-08T22:15:52.261Z,9.6
2022-12-08T22:20:03.457Z,9.68
2022-12-08T22:23:45.674Z,9.7
2022-12-08T22:26:13.994Z,9.7
2022-12-08T22:28:42.453Z,9.7
2022-12-08T22:31:10.627Z,9.72
2022-12-08T22:34:15.910Z,9.68
2022-12-08T22:36:43.981Z,9.68
2022-12-08T22:39:12.278Z,9.64
2022-12-08T22:41:40.637Z,9.62
2022-12-08T22:44:08.788Z,9.57
2022-12-08T22:47:14.182Z,9.54
2022-12-08T22:49:42.295Z,9.52
2022-12-08T22:52:10.566Z,9.51
2022-12-08T22:55:15.871Z,9.53
2022-12-08T22:57:44.092Z,9.54
2022-12-08T23:00:12.765Z,9.56
2022-12-08T23:02:40.645Z,9.56
2022-12-08T23:05:09.010Z,9.57
2022-12-08T23:08:14.183Z,9.6
2022-12-08T23:10:42.429Z,9.6
2022-12-08T23:13:10.684Z,9.66
2022-12-08T23:16:16.168Z,9.67
2022-12-08T23:18:44.450Z,9.68
2022-12-08T23:21:12.604Z,9.66
2022-12-08T23:23:40.729Z,9.66
2022-12-08T23:26:08.954Z,9.6
2022-12-08T23:29:14.332Z,9.58
2022-12-08T23:35:16.763Z,9.49
2022-12-08T23:37:45.006Z,9.47
2022-12-08T23:40:13.148Z,9.43
2022-12-08T23:42:41.541Z,9.58
2022-12-08T23:45:09.686Z,9.49
2022-12-08T23:48:52.259Z,9.47
2022-12-08T23:51:57.410Z,9.5
2022-12-08T23:55:02.854Z,9.57
2022-12-08T23:58:08.238Z,9.56
